Time;durP1;ratioP1;P1;durP2;ratioP2;P2;SDS_P1;SDS_P2;PMS_P1;PMS_P2;Temp;Humidity;BMP_temperature;BMP_pressure;BME280_temperature;BME280_humidity;BME280_pressure;Samples;Min_cycle;Max_cycle;Signal;HPM_P1;HPM_P2
2024/04/05 00:01:18;;;;;;;9.95;5.45;;;13.90;79.80;;;;;;4986837;28;113379;-53
2024/04/05 00:03:45;;;;;;;10.05;5.45;;;13.90;79.80;;;;;;4987026;28;112693;-53
2024/04/05 00:06:11;;;;;;;13.98;5.80;;;14.00;79.70;;;;;;4987418;28;113855;-53
2024/04/05 00:08:37;;;;;;;12.80;5.80;;;14.10;79.50;;;;;;4988100;28;112833;-53
2024/04/05 00:11:03;;;;;;;14.07;5.43;;;14.00;79.70;;;;;;4987022;28;113124;-53
2024/04/05 00:13:29;;;;;;;14.27;6.18;;;13.90;80.20;;;;;;4986654;28;113060;-53
2024/04/05 00:15:55;;;;;;;9.48;6.07;;;13.90;80.20;;;;;;4987856;28;112887;-53
2024/04/05 00:18:20;;;;;;;14.48;6.28;;;13.70;80.70;;;;;;4987969;28;112992;-53
2024/04/05 00:20:47;;;;;;;10.45;6.25;;;13.60;80.90;;;;;;4986643;28;113126;-53
2024/04/05 00:23:13;;;;;;;12.90;7.10;;;13.60;81.00;;;;;;4986423;28;113742;-53
2024/04/05 00:25:40;;;;;;;11.52;6.47;;;13.50;81.40;;;;;;4983751;28;112630;-53
2024/04/05 00:28:06;;;;;;;12.55;6.50;;;13.40;81.60;;;;;;4967708;28;112681;-52
2024/04/05 00:30:32;;;;;;;11.77;6.07;;;13.50;81.30;;;;;;4970299;28;113577;-53
2024/04/05 00:32:58;;;;;;;10.30;6.22;;;13.50;81.10;;;;;;4983951;28;113854;-53
2024/04/05 00:35:23;;;;;;;12.25;6.47;;;13.50;81.30;;;;;;4973182;28;112869;-55
2024/04/05 00:37:50;;;;;;;12.35;7.15;;;13.40;81.60;;;;;;4987715;28;112759;-53
2024/04/05 00:40:16;;;;;;;14.75;7.13;;;13.50;81.30;;;;;;4986397;28;114496;-53
2024/04/05 00:42:41;;;;;;;11.27;7.10;;;13.40;81.50;;;;;;4980233;28;113672;-53
2024/04/05 00:45:08;;;;;;;10.43;7.18;;;13.40;81.90;;;;;;4978654;28;114359;-53
2024/04/05 00:47:34;;;;;;;12.48;6.68;;;13.30;81.90;;;;;;4987384;28;113148;-53
2024/04/05 00:50:04;;;;;;;12.48;7.30;;;13.20;82.10;;;;;;4986341;28;114322;-53
2024/04/05 00:52:31;;;;;;;11.30;7.40;;;13.30;81.90;;;;;;4986113;28;112876;-53
2024/04/05 00:54:58;;;;;;;16.13;7.28;;;13.30;82.20;;;;;;4987183;28;113172;-53
2024/04/05 00:57:24;;;;;;;18.73;8.68;;;13.20;82.20;;;;;;4987115;28;112674;-52
2024/04/05 00:59:50;;;;;;;15.80;8.63;;;13.20;82.40;;;;;;4979420;28;114303;-53
2024/04/05 01:02:16;;;;;;;13.75;8.85;;;13.20;82.30;;;;;;4978851;28;113388;-53
2024/04/05 01:04:42;;;;;;;13.70;9.82;;;13.10;82.60;;;;;;4987207;28;112741;-52
2024/04/05 01:07:08;;;;;;;16.23;9.82;;;13.10;82.80;;;;;;4987183;28;112726;-53
2024/04/05 01:09:34;;;;;;;14.27;10.25;;;13.10;83.00;;;;;;4985796;28;114499;-53
2024/04/05 01:12:00;;;;;;;15.32;11.35;;;13.10;83.00;;;;;;4985224;28;113916;-53
2024/04/05 01:14:25;;;;;;;17.05;11.25;;;13.10;83.00;;;;;;4985992;28;112892;-53
2024/04/05 01:16:51;;;;;;;13.52;10.43;;;13.10;82.80;;;;;;4986140;28;113130;-53
2024/04/05 01:19:18;;;;;;;18.67;10.80;;;13.10;82.60;;;;;;4985357;28;113276;-53
2024/04/05 01:21:49;;;;;;;15.80;11.75;;;13.10;82.70;;;;;;4985132;28;112869;-52
2024/04/05 01:24:15;;;;;;;15.65;11.23;;;13.00;82.80;;;;;;4985930;28;112635;-52
2024/04/05 01:26:40;;;;;;;17.55;12.13;;;12.90;83.40;;;;;;4985878;28;112734;-52
2024/04/05 01:29:06;;;;;;;14.05;11.90;;;12.90;83.30;;;;;;4985277;28;114622;-54
2024/04/05 01:31:32;;;;;;;20.65;12.40;;;13.00;83.40;;;;;;4985108;28;113039;-53
2024/04/05 01:33:57;;;;;;;17.02;13.27;;;13.00;83.50;;;;;;4979462;28;113062;-53
2024/04/05 01:36:23;;;;;;;18.17;13.85;;;13.00;83.30;;;;;;4978750;28;112670;-52
2024/04/05 01:38:49;;;;;;;19.63;14.25;;;12.90;83.00;;;;;;4985241;28;113668;-53
2024/04/05 01:41:14;;;;;;;25.23;14.18;;;12.80;83.70;;;;;;4985213;28;112920;-53
2024/04/05 01:43:40;;;;;;;22.13;15.20;;;12.80;83.40;;;;;;4985588;28;112930;-53
2024/04/05 01:46:06;;;;;;;18.17;16.13;;;12.80;83.30;;;;;;4985973;28;113133;-53
2024/04/05 01:48:31;;;;;;;19.35;16.27;;;12.90;83.20;;;;;;4984887;28;114636;-53
2024/04/05 01:50:57;;;;;;;19.45;15.68;;;12.80;83.50;;;;;;4985575;28;112868;-53
2024/04/05 01:53:23;;;;;;;20.55;16.55;;;12.80;83.50;;;;;;4988975;28;112911;-52
2024/04/05 01:55:48;;;;;;;25.25;18.15;;;12.90;83.50;;;;;;4996808;28;112987;-53
2024/04/05 01:58:14;;;;;;;19.50;17.10;;;12.90;83.30;;;;;;4990961;28;113221;-52
2024/04/05 02:00:40;;;;;;;18.88;16.88;;;12.80;83.40;;;;;;4983805;28;113875;-53
2024/04/05 02:03:06;;;;;;;20.08;17.70;;;12.80;83.10;;;;;;4985558;28;112808;-53
2024/04/05 02:05:31;;;;;;;26.13;19.48;;;12.80;83.40;;;;;;4987540;28;112723;-53
2024/04/05 02:07:57;;;;;;;24.10;19.40;;;12.70;83.50;;;;;;4988359;28;114034;-53
2024/04/05 02:10:22;;;;;;;26.52;21.23;;;12.70;83.70;;;;;;4988242;28;112812;-52
2024/04/05 02:12:48;;;;;;;24.20;20.90;;;12.60;83.70;;;;;;4988847;28;112462;-53
2024/04/05 02:15:14;;;;;;;26.25;22.90;;;12.60;84.00;;;;;;4988567;28;113283;-53
2024/04/05 02:17:39;;;;;;;29.35;26.23;;;12.60;83.90;;;;;;4987675;28;114515;-53
2024/04/05 02:20:06;;;;;;;28.55;25.67;;;12.50;84.60;;;;;;4987610;28;113785;-53
2024/04/05 02:22:35;;;;;;;30.23;25.67;;;12.60;84.50;;;;;;4988693;28;112700;-53
2024/04/05 02:25:01;;;;;;;31.88;28.48;;;12.60;84.40;;;;;;4988357;28;112709;-53
2024/04/05 02:27:27;;;;;;;33.95;30.55;;;12.60;84.50;;;;;;4987725;28;113255;-53
2024/04/05 02:29:53;;;;;;;35.20;31.35;;;12.60;84.50;;;;;;4987600;28;112792;-53
2024/04/05 02:32:18;;;;;;;39.13;31.27;;;12.50;84.50;;;;;;4988457;28;112868;-53
2024/04/05 02:34:44;;;;;;;38.60;34.42;;;12.60;84.50;;;;;;4975756;28;112744;-53
2024/04/05 02:37:10;;;;;;;36.95;32.22;;;12.60;84.60;;;;;;4986587;28;113553;-53
2024/04/05 02:39:35;;;;;;;38.55;34.47;;;12.60;84.80;;;;;;4987749;28;113781;-52
2024/04/05 02:42:01;;;;;;;40.67;36.25;;;12.80;84.40;;;;;;4988739;28;113035;-53
2024/04/05 02:44:27;;;;;;;39.30;35.20;;;12.60;84.80;;;;;;4987982;28;112748;-53
2024/04/05 02:46:53;;;;;;;40.67;36.20;;;12.60;85.10;;;;;;4987031;28;114454;-53
2024/04/05 02:49:19;;;;;;;40.67;36.50;;;12.60;85.10;;;;;;4987615;28;113675;-53
2024/04/05 02:51:44;;;;;;;40.35;36.13;;;12.70;84.80;;;;;;4988090;28;112657;-53
2024/04/05 02:54:10;;;;;;;45.78;39.60;;;12.60;85.20;;;;;;4988142;28;112853;-53
2024/04/05 02:56:36;;;;;;;49.50;40.78;;;12.60;85.30;;;;;;4987308;28;113351;-53
2024/04/05 02:59:01;;;;;;;47.92;41.63;;;12.50;85.70;;;;;;4987326;28;112911;-52
2024/04/05 03:01:27;;;;;;;47.15;42.00;;;12.60;85.60;;;;;;4988374;28;112673;-53
2024/04/05 03:03:53;;;;;;;44.92;40.33;;;12.60;85.40;;;;;;4988213;28;112775;-53
2024/04/05 03:06:20;;;;;;;51.22;41.70;;;12.60;85.80;;;;;;4987194;28;115616;-53
2024/04/05 03:08:46;;;;;;;45.63;40.88;;;12.60;85.50;;;;;;4986950;28;114367;-53
2024/04/05 03:11:12;;;;;;;45.00;40.10;;;12.80;85.20;;;;;;4988010;28;112705;-53
2024/04/05 03:13:38;;;;;;;47.55;42.45;;;12.80;85.10;;;;;;4988038;28;112757;-53
2024/04/05 03:16:04;;;;;;;47.67;42.65;;;12.80;85.10;;;;;;4986691;28;114351;-53
2024/04/05 03:18:31;;;;;;;48.33;41.90;;;12.70;84.90;;;;;;4987105;28;112564;-53
2024/04/05 03:20:57;;;;;;;48.22;43.13;;;12.70;85.10;;;;;;4987969;28;113414;-53
2024/04/05 03:23:23;;;;;;;47.40;42.33;;;12.70;85.00;;;;;;4988220;28;112751;-53
2024/04/05 03:25:49;;;;;;;45.88;41.30;;;12.60;85.50;;;;;;4986975;28;113896;-53
2024/04/05 03:28:15;;;;;;;49.72;43.63;;;12.80;85.10;;;;;;4986362;28;112854;-53
2024/04/05 03:30:40;;;;;;;44.70;40.53;;;12.70;85.10;;;;;;4987632;28;112586;-53
2024/04/05 03:33:07;;;;;;;47.10;42.13;;;12.70;85.20;;;;;;4987864;28;112665;-53
2024/04/05 03:35:36;;;;;;;50.35;44.97;;;12.60;85.40;;;;;;4972686;28;113217;-53
2024/04/05 03:38:02;;;;;;;53.35;47.65;;;12.60;85.40;;;;;;4986652;28;112897;-53
2024/04/05 03:40:28;;;;;;;53.28;47.20;;;12.60;85.60;;;;;;4987539;28;112924;-52
2024/04/05 03:42:53;;;;;;;51.67;46.38;;;12.50;85.60;;;;;;4987628;28;112675;-53
2024/04/05 03:45:19;;;;;;;53.08;47.58;;;12.60;85.60;;;;;;4986509;28;113657;-53
2024/04/05 03:47:45;;;;;;;54.85;48.90;;;12.60;85.50;;;;;;4986539;28;113044;-52
2024/04/05 03:50:10;;;;;;;53.63;48.10;;;12.60;85.40;;;;;;4987591;28;112838;-53
2024/04/05 03:52:36;;;;;;;51.50;46.30;;;12.70;85.60;;;;;;4987531;28;113160;-52
2024/04/05 03:55:04;;;;;;;53.33;47.28;;;12.60;85.40;;;;;;4986873;28;113220;-53
2024/04/05 03:57:30;;;;;;;57.80;50.67;;;12.60;85.40;;;;;;4985915;28;112647;-53
2024/04/05 03:59:55;;;;;;;53.03;47.53;;;12.60;85.60;;;;;;4987275;28;113651;-53
2024/04/05 04:02:23;;;;;;;53.25;47.58;;;12.70;85.30;;;;;;4986913;28;112685;-52
2024/04/05 04:04:49;;;;;;;53.25;46.67;;;12.70;85.10;;;;;;4986375;28;113156;-53
2024/04/05 04:07:15;;;;;;;56.03;49.00;;;12.60;85.30;;;;;;4985879;28;114413;-53
2024/04/05 04:09:40;;;;;;;55.42;48.55;;;12.60;85.60;;;;;;4987004;28;112897;-52
2024/04/05 04:12:06;;;;;;;56.30;48.83;;;12.60;85.40;;;;;;4987218;28;113920;-53
2024/04/05 04:14:32;;;;;;;53.25;47.60;;;12.60;85.40;;;;;;4986187;28;113187;-53
2024/04/05 04:16:58;;;;;;;56.42;49.25;;;12.60;85.30;;;;;;4986277;28;112814;-53
2024/04/05 04:19:23;;;;;;;52.25;47.15;;;12.60;85.40;;;;;;4987008;28;112943;-53
2024/04/05 04:21:49;;;;;;;53.20;47.53;;;12.60;85.60;;;;;;4987007;28;112835;-52
2024/04/05 04:24:16;;;;;;;53.13;47.40;;;12.60;85.40;;;;;;4986041;28;113078;-53
2024/04/05 04:26:42;;;;;;;53.50;47.97;;;12.60;85.30;;;;;;4985855;28;113995;-53
2024/04/05 04:29:08;;;;;;;55.17;49.00;;;12.60;85.20;;;;;;4986329;28;112815;-53
2024/04/05 04:31:33;;;;;;;57.10;49.33;;;12.60;85.30;;;;;;4986766;28;112787;-53
2024/04/05 04:33:59;;;;;;;55.08;49.38;;;12.60;85.20;;;;;;4979361;28;113535;-53
2024/04/05 04:36:25;;;;;;;56.15;50.42;;;12.60;85.40;;;;;;4978716;28;112877;-53
2024/04/05 04:38:53;;;;;;;61.78;50.42;;;12.50;85.50;;;;;;4986642;28;113878;-53
2024/04/05 04:41:20;;;;;;;55.33;49.42;;;12.50;85.50;;;;;;4986864;28;112832;-52
2024/04/05 04:43:46;;;;;;;55.95;49.80;;;12.50;85.40;;;;;;4985242;28;113162;-53
2024/04/05 04:46:13;;;;;;;57.25;49.70;;;12.60;85.10;;;;;;4985967;28;112616;-52
2024/04/05 04:48:39;;;;;;;57.10;50.65;;;12.50;85.40;;;;;;4986352;28;112821;-52
2024/04/05 04:51:06;;;;;;;56.42;50.70;;;12.50;85.30;;;;;;4985564;28;113129;-53
2024/04/05 04:53:31;;;;;;;58.40;52.17;;;12.40;85.60;;;;;;4984150;28;116678;-53
2024/04/05 04:55:57;;;;;;;55.08;49.17;;;12.40;85.40;;;;;;4985704;28;112890;-52
2024/04/05 04:58:23;;;;;;;56.17;50.30;;;12.40;85.40;;;;;;4986540;28;112464;-53
2024/04/05 05:00:52;;;;;;;58.65;52.40;;;12.40;85.20;;;;;;4986225;28;112928;-53
2024/04/05 05:03:17;;;;;;;57.35;51.10;;;12.40;85.40;;;;;;4985521;28;114518;-53
2024/04/05 05:05:43;;;;;;;62.20;54.63;;;12.40;85.40;;;;;;4985458;28;112893;-53
2024/04/05 05:08:12;;;;;;;61.05;53.55;;;12.30;85.40;;;;;;4986409;28;112778;-53
2024/04/05 05:10:42;;;;;;;58.00;51.25;;;12.40;85.70;;;;;;4986485;28;112612;-53
2024/04/05 05:13:11;;;;;;;58.10;50.17;;;12.40;85.40;;;;;;4985075;28;114458;-53
2024/04/05 05:15:39;;;;;;;64.65;54.55;;;12.50;85.20;;;;;;4983616;28;113838;-53
2024/04/05 05:18:05;;;;;;;59.45;53.10;;;12.50;85.10;;;;;;4985847;28;112906;-53
2024/04/05 05:20:31;;;;;;;57.60;51.03;;;12.50;85.20;;;;;;4986220;28;112642;-53
2024/04/05 05:22:56;;;;;;;59.92;53.40;;;12.50;85.20;;;;;;4985147;28;113172;-53
2024/04/05 05:25:22;;;;;;;59.15;52.83;;;12.60;85.10;;;;;;4985323;28;112805;-53
2024/04/05 05:27:48;;;;;;;58.40;51.83;;;12.60;85.10;;;;;;4985706;28;112650;-53
2024/04/05 05:30:15;;;;;;;58.45;52.15;;;12.80;84.90;;;;;;4984666;28;112781;-53
2024/04/05 05:32:41;;;;;;;57.35;51.30;;;12.90;84.80;;;;;;4985227;28;113387;-53
2024/04/05 05:35:08;;;;;;;56.88;50.67;;;13.00;84.40;;;;;;4971120;28;112651;-53
2024/04/05 05:37:34;;;;;;;56.42;50.35;;;13.00;84.40;;;;;;4984594;28;113115;-53
2024/04/05 05:40:00;;;;;;;56.47;50.42;;;13.10;84.30;;;;;;4986513;28;113075;-53
2024/04/05 05:42:27;;;;;;;56.83;50.78;;;13.10;84.20;;;;;;4986855;28;114691;-53
2024/04/05 05:44:53;;;;;;;57.92;50.17;;;13.30;83.90;;;;;;4988263;28;112810;-53
2024/04/05 05:47:19;;;;;;;56.65;50.08;;;13.40;83.80;;;;;;4989145;28;112817;-53
2024/04/05 05:49:45;;;;;;;52.72;47.05;;;13.40;83.90;;;;;;4988564;28;112872;-53
2024/04/05 05:52:11;;;;;;;55.42;48.05;;;13.50;83.60;;;;;;4988283;28;113220;-53
2024/04/05 05:54:37;;;;;;;55.88;47.42;;;13.60;83.40;;;;;;4988549;28;112854;-53
2024/04/05 05:57:03;;;;;;;54.42;47.28;;;13.80;83.30;;;;;;4989102;28;112674;-53
2024/04/05 05:59:30;;;;;;;53.10;47.55;;;13.70;83.50;;;;;;4989380;28;112854;-53
2024/04/05 06:01:56;;;;;;;63.42;55.42;;;13.90;83.20;;;;;;4988189;28;113268;-53
2024/04/05 06:04:22;;;;;;;60.97;52.75;;;13.90;82.90;;;;;;4987881;28;113180;-53
2024/04/05 06:06:49;;;;;;;56.42;50.30;;;14.00;82.90;;;;;;4989068;28;112708;-53
2024/04/05 06:09:16;;;;;;;56.03;49.50;;;13.90;83.20;;;;;;4989458;28;113004;-52
2024/04/05 06:11:42;;;;;;;53.63;47.97;;;13.90;83.40;;;;;;4988530;28;112956;-52
2024/04/05 06:14:08;;;;;;;51.67;45.83;;;14.00;83.10;;;;;;4988283;28;113014;-53
2024/04/05 06:16:34;;;;;;;52.95;47.20;;;14.10;82.90;;;;;;4988916;28;112647;-53
2024/04/05 06:18:59;;;;;;;51.55;46.05;;;14.10;82.80;;;;;;4988814;28;113021;-52
2024/04/05 06:21:25;;;;;;;50.88;45.35;;;14.20;82.90;;;;;;4987771;28;114707;-52
2024/04/05 06:23:51;;;;;;;51.85;46.33;;;14.30;82.60;;;;;;4987775;28;113166;-53
2024/04/05 06:26:17;;;;;;;50.83;43.63;;;14.30;82.60;;;;;;4988529;28;112736;-53
2024/04/05 06:28:43;;;;;;;48.40;43.28;;;14.40;82.40;;;;;;4988440;28;113023;-52
2024/04/05 06:31:10;;;;;;;48.22;42.95;;;14.40;82.30;;;;;;4987704;28;113348;-53
2024/04/05 06:33:36;;;;;;;47.15;42.10;;;14.40;82.00;;;;;;4983885;28;113378;-53
2024/04/05 06:36:03;;;;;;;50.53;40.45;;;14.60;81.80;;;;;;4978315;28;112561;-53
2024/04/05 06:38:29;;;;;;;45.47;40.83;;;14.70;81.20;;;;;;4985382;28;113370;-53
2024/04/05 06:40:58;;;;;;;48.95;40.28;;;14.70;81.10;;;;;;4968017;28;114068;-53
2024/04/05 06:43:30;;;;;;;45.35;39.80;;;14.80;81.00;;;;;;4980501;28;113659;-53
2024/04/05 06:45:58;;;;;;;45.60;40.72;;;14.90;80.40;;;;;;4978483;28;112829;-53
2024/04/05 06:48:24;;;;;;;49.13;41.47;;;14.90;80.60;;;;;;4975083;28;112725;-53
2024/04/05 06:50:50;;;;;;;47.55;41.20;;;14.90;80.70;;;;;;4969530;28;113741;-52
2024/04/05 06:53:20;;;;;;;46.40;41.35;;;15.00;80.70;;;;;;4967184;28;112872;-53
2024/04/05 06:55:48;;;;;;;47.47;39.72;;;15.10;80.60;;;;;;4970743;28;112694;-53
2024/04/05 06:58:15;;;;;;;43.65;39.00;;;15.10;80.40;;;;;;4978027;28;112647;-52
2024/04/05 07:00:45;;;;;;;44.35;39.58;;;15.10;80.30;;;;;;4966918;28;113185;-53
2024/04/05 07:03:12;;;;;;;50.42;37.97;;;15.20;79.80;;;;;;4971380;28;114000;-53
2024/04/05 07:05:38;;;;;;;41.35;37.05;;;15.20;80.10;;;;;;4982497;28;112936;-53
2024/04/05 07:08:05;;;;;;;41.63;36.92;;;15.30;80.10;;;;;;4970439;28;112719;-53
2024/04/05 07:10:32;;;;;;;41.13;36.72;;;15.40;79.90;;;;;;4973091;28;114299;-52
2024/04/05 07:12:59;;;;;;;38.47;33.65;;;15.40;79.70;;;;;;4973652;28;112807;-53
2024/04/05 07:15:25;;;;;;;42.58;35.13;;;15.40;79.90;;;;;;4971001;28;113027;-53
2024/04/05 07:17:52;;;;;;;41.70;35.92;;;15.70;79.30;;;;;;4984216;28;112865;-53
2024/04/05 07:20:24;;;;;;;36.85;32.08;;;15.90;78.60;;;;;;4980730;28;113131;-53
2024/04/05 07:22:52;;;;;;;35.25;31.42;;;16.10;77.90;;;;;;4979796;28;112895;-53
2024/04/05 07:25:17;;;;;;;34.45;29.60;;;16.10;77.90;;;;;;4985778;28;113027;-53
2024/04/05 07:27:44;;;;;;;34.30;30.45;;;16.40;76.90;;;;;;4983819;28;113090;-53
2024/04/05 07:30:09;;;;;;;38.28;30.35;;;16.50;76.30;;;;;;4980020;28;114359;-53
2024/04/05 07:32:36;;;;;;;39.00;31.55;;;16.60;76.20;;;;;;4986689;28;113798;-53
2024/04/05 07:35:02;;;;;;;30.20;25.70;;;16.80;75.90;;;;;;4987059;28;112847;-53
2024/04/05 07:37:28;;;;;;;33.58;26.55;;;16.80;75.90;;;;;;4990148;28;112856;-54
2024/04/05 07:39:57;;;;;;;28.25;24.60;;;16.60;76.20;;;;;;4986551;28;113233;-54
2024/04/05 07:42:23;;;;;;;27.48;24.15;;;16.50;77.00;;;;;;4985770;28;113210;-52
2024/04/05 07:44:56;;;;;;;29.58;25.42;;;16.40;77.20;;;;;;4986967;28;112866;-54
2024/04/05 07:47:22;;;;;;;31.75;23.05;;;16.50;76.90;;;;;;4987268;28;112904;-53
2024/04/05 07:49:54;;;;;;;25.67;21.42;;;16.70;76.80;;;;;;4976055;28;113200;-53
2024/04/05 07:52:22;;;;;;;;;;;16.80;76.10;;;;;;4974987;28;114009;-53
2024/04/05 07:54:49;;;;;;;25.75;21.50;;;16.90;76.10;;;;;;4988746;28;112562;-54
2024/04/05 07:57:15;;;;;;;24.00;20.58;;;17.00;75.30;;;;;;4984919;28;112772;-53
2024/04/05 07:59:41;;;;;;;24.08;21.52;;;17.00;75.50;;;;;;4974506;28;114286;-54
2024/04/05 08:02:07;;;;;;;26.23;21.63;;;16.90;75.30;;;;;;4977463;28;112669;-53
2024/04/05 08:04:33;;;;;;;22.73;19.15;;;17.40;75.00;;;;;;4986444;28;112873;-53
2024/04/05 08:06:59;;;;;;;24.15;18.55;;;17.80;73.80;;;;;;4986659;28;112797;-53
2024/04/05 08:09:25;;;;;;;25.83;16.92;;;18.00;72.90;;;;;;4985572;28;113133;-54
2024/04/05 08:11:51;;;;;;;22.40;17.42;;;18.40;72.00;;;;;;4985857;28;113632;-53
2024/04/05 08:14:17;;;;;;;23.67;19.08;;;18.60;70.70;;;;;;4972783;28;112616;-54
2024/04/05 08:16:43;;;;;;;24.20;17.42;;;18.50;70.40;;;;;;4986983;28;112913;-53
2024/04/05 08:19:08;;;;;;;20.90;17.25;;;18.70;70.90;;;;;;4985192;28;113102;-54
2024/04/05 08:21:34;;;;;;;18.20;14.60;;;18.70;70.30;;;;;;4966304;28;113952;-53
2024/04/05 08:24:00;;;;;;;20.40;18.13;;;18.80;69.20;;;;;;4974173;28;112816;-54
2024/04/05 08:26:25;;;;;;;19.13;14.75;;;18.60;70.00;;;;;;4985091;28;113111;-54
2024/04/05 08:28:52;;;;;;;18.10;13.68;;;18.70;69.30;;;;;;4985352;28;114514;-53
2024/04/05 08:31:18;;;;;;;18.77;13.75;;;18.80;69.00;;;;;;4985178;28;113856;-54
2024/04/05 08:33:44;;;;;;;15.98;13.50;;;18.90;69.20;;;;;;4981627;28;113116;-54
2024/04/05 08:36:10;;;;;;;18.88;13.02;;;18.90;68.70;;;;;;4968350;28;112836;-54
2024/04/05 08:38:36;;;;;;;18.77;12.68;;;18.90;69.10;;;;;;4980775;28;113322;-54
2024/04/05 08:41:06;;;;;;;18.40;12.10;;;19.00;67.30;;;;;;4968812;28;113367;-54
2024/04/05 08:43:37;;;;;;;13.55;10.75;;;19.10;67.50;;;;;;4972260;28;112606;-54
2024/04/05 08:46:04;;;;;;;14.40;10.10;;;19.10;66.20;;;;;;4967099;28;112836;-53
2024/04/05 08:48:34;;;;;;;14.27;9.50;;;19.40;65.60;;;;;;4969936;28;114584;-53
2024/04/05 08:51:01;;;;;;;14.75;9.32;;;19.50;66.20;;;;;;4968619;28;114343;-54
2024/04/05 08:53:29;;;;;;;15.00;8.75;;;19.50;66.10;;;;;;4970552;28;113083;-54
2024/04/05 08:55:59;;;;;;;14.45;8.20;;;19.40;65.90;;;;;;4969713;28;112899;-54
2024/04/05 08:58:26;;;;;;;11.90;7.68;;;19.80;64.80;;;;;;4966892;28;114646;-54
2024/04/05 09:00:53;;;;;;;14.45;8.23;;;20.10;64.70;;;;;;4970110;28;113334;-54
2024/04/05 09:03:19;;;;;;;13.20;8.38;;;20.10;64.30;;;;;;4969319;28;113045;-54
2024/04/05 09:05:45;;;;;;;13.10;7.90;;;19.70;64.80;;;;;;4971345;28;113374;-53
2024/04/05 09:08:11;;;;;;;15.27;8.82;;;19.50;65.20;;;;;;4968671;28;115309;-54
2024/04/05 09:10:36;;;;;;;14.95;7.72;;;19.50;65.70;;;;;;4970165;28;113588;-54
2024/04/05 09:13:06;;;;;;;11.63;7.95;;;19.50;65.60;;;;;;4970649;28;112901;-54
2024/04/05 09:15:32;;;;;;;14.48;8.10;;;19.50;64.90;;;;;;4969758;28;112638;-53
2024/04/05 09:17:58;;;;;;;13.65;7.25;;;19.60;65.10;;;;;;4970695;28;113245;-53
2024/04/05 09:20:29;;;;;;;11.77;7.25;;;19.70;64.90;;;;;;4966566;28;112616;-54
2024/04/05 09:23:12;;;;;;;13.07;7.38;;;19.70;64.80;;;;;;4973716;28;112720;-54
2024/04/05 09:25:40;;;;;;;14.02;7.15;;;19.80;64.50;;;;;;4973398;28;112954;-54
2024/04/05 09:28:07;;;;;;;12.52;7.55;;;19.90;64.30;;;;;;4972354;28;113198;-54
2024/04/05 09:30:35;;;;;;;13.10;7.68;;;19.90;64.00;;;;;;4971024;28;113190;-54
2024/04/05 09:33:01;;;;;;;9.35;6.63;;;19.90;64.00;;;;;;4975116;28;112733;-54
2024/04/05 09:35:28;;;;;;;14.95;6.32;;;20.10;63.40;;;;;;4966646;28;113400;-54
2024/04/05 09:37:55;;;;;;;14.63;7.57;;;20.20;62.30;;;;;;4984285;28;113715;-54
2024/04/05 09:40:25;;;;;;;13.57;6.80;;;19.90;62.90;;;;;;4968367;28;113101;-54
2024/04/05 09:42:54;;;;;;;11.68;6.90;;;20.10;63.30;;;;;;4976170;28;112559;-54
2024/04/05 09:45:21;;;;;;;13.50;7.07;;;20.80;61.70;;;;;;4971360;28;113190;-54
2024/04/05 09:47:48;;;;;;;10.75;6.55;;;20.80;61.00;;;;;;4985270;28;113245;-54
2024/04/05 09:50:14;;;;;;;13.18;6.53;;;20.70;61.70;;;;;;4985248;28;112632;-54
2024/04/05 09:52:43;;;;;;;13.50;7.43;;;20.60;61.10;;;;;;4972685;28;112723;-54
2024/04/05 09:55:13;;;;;;;12.90;7.05;;;20.80;60.60;;;;;;4986030;28;112726;-54
2024/04/05 09:57:39;;;;;;;12.38;6.75;;;20.90;59.80;;;;;;4971075;28;114452;-54
2024/04/05 10:00:14;;;;;;;14.75;7.90;;;21.60;59.30;;;;;;4973476;28;113802;-54
2024/04/05 10:02:49;;;;;;;12.63;7.68;;;21.30;58.20;;;;;;4985038;28;112726;-54
2024/04/05 10:05:28;;;;;;;12.07;6.72;;;21.50;57.70;;;;;;4986191;28;112862;-54
2024/04/05 10:07:54;;;;;;;11.95;7.78;;;22.10;57.30;;;;;;4984827;28;117702;-54
2024/04/05 10:10:32;;;;;;;11.40;7.35;;;22.40;56.50;;;;;;4972780;28;112743;-54
2024/04/05 10:13:15;;;;;;;9.60;6.85;;;22.80;54.70;;;;;;4979663;28;112515;-54
2024/04/05 10:15:58;;;;;;;11.27;8.73;;;23.20;54.40;;;;;;4980362;28;112613;-54
2024/04/05 10:18:25;;;;;;;12.57;8.00;;;23.00;52.60;;;;;;4985000;28;113142;-54
2024/04/05 10:21:05;;;;;;;16.30;7.97;;;23.10;53.30;;;;;;4966164;28;114305;-54
2024/04/05 10:23:32;;;;;;;11.15;8.50;;;23.30;52.80;;;;;;4969004;28;113123;-54
2024/04/05 10:25:57;;;;;;;14.13;8.75;;;23.50;52.40;;;;;;4971911;28;112953;-54
2024/04/05 10:28:23;;;;;;;15.20;8.90;;;24.30;50.40;;;;;;4994345;28;114333;-54
2024/04/05 10:30:49;;;;;;;16.65;9.50;;;24.60;49.60;;;;;;4976098;28;113558;-54
2024/04/05 10:33:21;;;;;;;11.98;8.13;;;25.60;47.40;;;;;;4974523;28;112700;-55
2024/04/05 10:35:48;;;;;;;;;;;27.80;44.40;;;;;;4977106;28;112790;-54
2024/04/05 10:38:17;;;;;;;11.48;8.10;;;28.00;43.00;;;;;;4989997;28;115130;-55
2024/04/05 10:40:44;;;;;;;11.57;7.10;;;29.70;39.90;;;;;;4974738;28;112647;-55
2024/04/05 10:43:11;;;;;;;10.73;7.95;;;31.90;37.20;;;;;;4983960;28;112995;-55
2024/04/05 10:45:38;;;;;;;16.13;9.48;;;33.10;34.80;;;;;;4968779;28;113248;-56
2024/04/05 10:48:05;;;;;;;11.85;8.63;;;33.10;34.90;;;;;;4972685;28;114481;-54
2024/04/05 10:50:37;;;;;;;10.73;9.10;;;33.40;34.40;;;;;;4969863;28;117027;-55
2024/04/05 10:53:03;;;;;;;;;;;34.10;33.20;;;;;;4976200;28;112792;-55
2024/04/05 10:55:29;;;;;;;14.38;9.90;;;32.00;35.70;;;;;;4978708;28;112760;-54
2024/04/05 10:57:56;;;;;;;12.18;10.75;;;30.40;37.50;;;;;;4976500;28;113822;-54
2024/04/05 11:00:22;;;;;;;12.93;10.80;;;27.30;41.90;;;;;;4968261;28;114077;-55
2024/04/05 11:02:49;;;;;;;12.60;9.15;;;24.80;47.30;;;;;;4970790;28;112624;-55
2024/04/05 11:05:19;;;;;;;12.13;10.05;;;24.40;50.00;;;;;;4971958;28;112817;-55
2024/04/05 11:07:45;;;;;;;14.45;11.25;;;25.30;46.70;;;;;;4965635;28;113306;-55
2024/04/05 11:10:18;;;;;;;12.27;9.60;;;26.60;44.70;;;;;;4978594;28;113031;-55
2024/04/05 11:12:44;;;;;;;11.00;8.38;;;28.00;42.00;;;;;;4967629;28;112925;-55
2024/04/05 11:15:10;;;;;;;13.23;8.43;;;27.50;44.00;;;;;;4968422;28;113150;-55
2024/04/05 11:17:37;;;;;;;10.27;8.07;;;31.70;36.80;;;;;;4967566;28;114131;-55
2024/04/05 11:20:11;;;;;;;13.60;10.25;;;31.30;37.50;;;;;;4967404;28;113674;-55
2024/04/05 11:22:37;;;;;;;13.48;9.40;;;27.80;40.90;;;;;;4983568;28;112697;-55
2024/04/05 11:25:04;;;;;;;13.38;10.07;;;25.90;45.10;;;;;;4968370;28;112679;-55
2024/04/05 11:27:30;;;;;;;12.18;10.77;;;24.90;47.10;;;;;;4966175;28;114346;-55
2024/04/05 11:29:56;;;;;;;13.13;9.07;;;25.10;46.10;;;;;;4966608;28;113086;-55
2024/04/05 11:32:29;;;;;;;12.77;9.52;;;25.70;47.00;;;;;;4968383;28;113070;-55
2024/04/05 11:35:05;;;;;;;14.27;10.15;;;28.30;41.50;;;;;;4968506;28;112692;-55
2024/04/05 11:37:31;;;;;;;13.70;10.18;;;25.80;45.10;;;;;;4985063;28;114391;-55
2024/04/05 11:39:58;;;;;;;13.63;9.77;;;26.50;44.50;;;;;;4986217;28;113992;-55
2024/04/05 11:42:23;;;;;;;11.85;9.50;;;27.00;43.90;;;;;;4987962;28;112809;-55
2024/04/05 11:44:50;;;;;;;11.43;10.32;;;26.90;43.60;;;;;;4988051;28;113138;-54
2024/04/05 11:47:21;;;;;;;17.88;11.40;;;24.60;47.70;;;;;;4985947;28;114372;-54
2024/04/05 11:49:47;;;;;;;15.00;12.07;;;23.40;50.10;;;;;;4986750;28;113763;-55
2024/04/05 11:52:13;;;;;;;12.10;10.32;;;22.90;51.40;;;;;;4980282;28;112690;-54
2024/04/05 11:54:39;;;;;;;15.02;10.93;;;22.90;51.90;;;;;;4969742;28;112847;-55
2024/04/05 11:57:04;;;;;;;14.60;9.15;;;23.00;51.60;;;;;;4979319;28;113369;-54
2024/04/05 11:59:30;;;;;;;10.50;8.70;;;24.40;49.90;;;;;;4975499;28;112531;-54
2024/04/05 12:01:56;;;;;;;13.77;9.85;;;26.40;44.00;;;;;;4984828;28;112720;-54
2024/04/05 12:04:23;;;;;;;13.52;9.80;;;24.80;47.00;;;;;;4978264;28;112662;-54
2024/04/05 12:06:50;;;;;;;13.13;9.98;;;23.40;49.50;;;;;;4979632;28;114679;-54
2024/04/05 12:09:16;;;;;;;11.05;7.50;;;26.00;45.10;;;;;;4976539;28;112828;-55
2024/04/05 12:11:45;;;;;;;10.40;7.72;;;30.80;38.20;;;;;;4979984;28;112723;-55
2024/04/05 12:14:11;;;;;;;9.60;8.00;;;31.40;36.20;;;;;;4984109;28;113023;-55
2024/04/05 12:16:37;;;;;;;12.75;8.60;;;27.50;42.50;;;;;;4977733;28;113149;-54
2024/04/05 12:19:02;;;;;;;11.02;9.18;;;25.40;45.40;;;;;;4985054;28;115675;-54